createdAt,value
2019-05-14T00:00:14.531Z,0.00
2019-05-14T00:01:14.544Z,0.00
2019-05-14T00:02:14.549Z,0.00
2019-05-14T00:03:14.557Z,0.00
2019-05-14T00:04:14.574Z,0.00
2019-05-14T00:05:14.568Z,0.00
2019-05-14T00:06:14.574Z,0.00
2019-05-14T00:07:14.582Z,0.00
2019-05-14T00:08:17.469Z,0.00
2019-05-14T00:09:14.599Z,0.00
2019-05-14T00:10:14.603Z,0.00
2019-05-14T00:11:14.609Z,0.00
2019-05-14T00:12:14.616Z,0.00
2019-05-14T00:13:14.618Z,0.00
2019-05-14T00:14:14.636Z,0.00
2019-05-14T00:15:14.636Z,0.00
2019-05-14T00:16:14.648Z,0.00
2019-05-14T00:17:14.649Z,0.00
2019-05-14T00:18:14.654Z,0.00
2019-05-14T00:19:14.661Z,0.00
2019-05-14T00:20:14.697Z,0.00
2019-05-14T00:21:14.679Z,0.00
2019-05-14T00:22:14.684Z,0.00
2019-05-14T00:23:14.691Z,0.00
2019-05-14T00:24:14.697Z,0.00
2019-05-14T00:25:14.703Z,0.00
2019-05-14T00:26:14.711Z,0.00
2019-05-14T00:27:14.720Z,0.00
2019-05-14T00:28:14.720Z,0.00
2019-05-14T00:29:14.729Z,0.00
2019-05-14T00:30:14.736Z,0.00
2019-05-14T00:31:14.745Z,0.00
2019-05-14T00:32:14.753Z,0.00
2019-05-14T00:33:14.756Z,0.00
2019-05-14T00:34:14.760Z,0.00
2019-05-14T00:35:14.766Z,0.00
2019-05-14T00:36:14.777Z,0.00
2019-05-14T00:37:14.785Z,0.00
2019-05-14T00:38:14.790Z,0.00
2019-05-14T00:39:14.798Z,0.00
2019-05-14T00:40:14.802Z,0.00
2019-05-14T00:41:14.811Z,0.00
2019-05-14T00:42:14.815Z,0.00
2019-05-14T00:43:14.824Z,0.00
2019-05-14T00:44:14.828Z,0.00
2019-05-14T00:45:14.835Z,0.00
2019-05-14T00:46:14.844Z,0.00
2019-05-14T00:47:14.847Z,0.00
2019-05-14T00:48:14.853Z,0.00
2019-05-14T00:49:14.865Z,0.00
2019-05-14T00:50:14.874Z,0.00
2019-05-14T00:51:14.875Z,0.00
2019-05-14T00:52:14.889Z,0.00
2019-05-14T00:53:14.888Z,0.00
2019-05-14T00:54:14.894Z,0.00
2019-05-14T00:55:14.896Z,0.00
2019-05-14T00:56:14.906Z,0.00
2019-05-14T00:57:14.912Z,0.00
2019-05-14T00:58:14.921Z,0.00
2019-05-14T00:59:14.927Z,0.00
2019-05-14T01:00:14.930Z,0.00
2019-05-14T01:01:14.943Z,0.00
2019-05-14T01:02:14.946Z,0.00
2019-05-14T01:03:14.951Z,0.00
2019-05-14T01:04:14.959Z,0.00
2019-05-14T01:05:14.964Z,0.00
2019-05-14T01:06:14.972Z,0.00
2019-05-14T01:07:14.989Z,0.00
2019-05-14T01:08:14.979Z,0.00
2019-05-14T01:09:14.989Z,0.00
2019-05-14T01:10:14.994Z,0.00
2019-05-14T01:11:15.004Z,0.00
2019-05-14T01:12:15.012Z,0.00
2019-05-14T01:13:15.013Z,0.00
2019-05-14T01:14:15.024Z,0.00
2019-05-14T01:15:15.029Z,0.00
2019-05-14T01:16:15.032Z,0.00
2019-05-14T01:17:15.044Z,0.00
2019-05-14T01:18:15.051Z,0.00
2019-05-14T01:19:15.050Z,0.00
2019-05-14T01:20:15.060Z,0.00
2019-05-14T01:21:15.065Z,0.00
2019-05-14T01:22:15.073Z,0.00
2019-05-14T01:23:15.081Z,0.00
2019-05-14T01:24:15.086Z,0.00
2019-05-14T01:25:15.095Z,0.00
2019-05-14T01:26:15.099Z,0.00
2019-05-14T01:27:15.107Z,0.00
2019-05-14T01:28:15.110Z,0.00
2019-05-14T01:29:15.119Z,0.00
2019-05-14T01:30:15.121Z,0.00
2019-05-14T01:31:15.129Z,0.00
2019-05-14T01:32:15.136Z,0.00
2019-05-14T01:33:15.144Z,0.00
2019-05-14T01:34:15.151Z,0.00
2019-05-14T01:35:15.156Z,0.00
2019-05-14T01:36:15.162Z,0.00
2019-05-14T01:37:15.167Z,0.00
2019-05-14T01:38:15.177Z,0.00
2019-05-14T01:39:15.181Z,0.00
2019-05-14T01:40:15.184Z,0.00
2019-05-14T01:41:15.196Z,0.00
2019-05-14T01:42:15.204Z,0.00
2019-05-14T01:43:15.207Z,0.00
2019-05-14T01:44:15.213Z,0.00
2019-05-14T01:45:25.192Z,0.00
2019-05-14T01:46:15.224Z,0.00
2019-05-14T01:47:15.230Z,0.00
2019-05-14T01:48:15.233Z,0.00
2019-05-14T01:49:15.243Z,0.00
2019-05-14T01:50:22.919Z,0.00
2019-05-14T01:52:21.833Z,0.00
2019-05-14T01:53:21.838Z,0.00
2019-05-14T01:55:24.242Z,0.00
2019-05-14T01:56:24.237Z,0.00
2019-05-14T01:58:30.957Z,0.00
2019-05-14T01:59:28.715Z,0.00
2019-05-14T02:01:22.128Z,0.00
2019-05-14T02:02:22.230Z,0.00
2019-05-14T02:04:27.599Z,0.00
2019-05-14T02:05:27.600Z,0.00
2019-05-14T02:07:32.095Z,0.00
2019-05-14T02:08:32.432Z,0.00
2019-05-14T02:10:36.566Z,0.00
2019-05-14T02:11:36.571Z,0.00
2019-05-14T02:13:41.486Z,0.00
2019-05-14T02:14:42.495Z,0.00
2019-05-14T02:16:45.534Z,0.00
2019-05-14T02:17:45.516Z,0.00
2019-05-14T02:19:51.563Z,0.00
2019-05-14T02:20:51.983Z,0.00
2019-05-14T02:22:54.488Z,0.00
2019-05-14T02:23:54.498Z,0.00
2019-05-14T02:25:58.960Z,0.00
2019-05-14T02:26:58.964Z,0.00
2019-05-14T02:29:03.452Z,0.00
2019-05-14T02:30:03.445Z,0.00
2019-05-14T02:32:10.505Z,0.00
2019-05-14T02:33:09.269Z,0.00
2019-05-14T02:35:12.404Z,0.00
2019-05-14T02:36:12.407Z,0.00
2019-05-14T02:38:19.448Z,0.00
2019-05-14T02:39:19.431Z,0.00
2019-05-14T02:41:10.305Z,0.00
2019-05-14T02:42:10.326Z,0.00
2019-05-14T02:44:14.812Z,0.00
2019-05-14T02:45:14.804Z,0.00
2019-05-14T02:47:19.781Z,0.00
2019-05-14T02:48:20.210Z,0.00
2019-05-14T02:49:19.626Z,0.00
2019-05-14T02:50:20.209Z,0.00
2019-05-14T02:51:20.122Z,0.00
2019-05-14T02:52:20.374Z,0.00
2019-05-14T02:53:20.086Z,0.00
2019-05-14T02:54:20.422Z,0.00
2019-05-14T02:55:19.650Z,0.00
2019-05-14T02:56:20.528Z,0.00
2019-05-14T02:57:20.113Z,0.00
2019-05-14T02:58:20.794Z,0.00
2019-05-14T02:59:19.756Z,0.00
2019-05-14T03:00:19.558Z,0.00
2019-05-14T03:01:20.026Z,0.00
2019-05-14T03:02:19.402Z,0.00
2019-05-14T03:03:19.458Z,0.00
2019-05-14T03:04:19.925Z,0.00
2019-05-14T03:05:19.509Z,0.00
2019-05-14T03:06:20.288Z,0.00
2019-05-14T03:07:19.663Z,0.00
2019-05-14T03:08:20.088Z,0.00
2019-05-14T03:09:20.284Z,0.00
2019-05-14T03:10:19.624Z,0.00
2019-05-14T03:11:20.085Z,0.00
2019-05-14T03:12:19.642Z,4.00
2019-05-14T03:13:20.241Z,4.00
2019-05-14T03:14:19.812Z,0.00
2019-05-14T03:15:20.018Z,0.00
2019-05-14T03:16:29.323Z,4.00
2019-05-14T03:17:20.086Z,0.00
2019-05-14T03:18:20.007Z,4.00
2019-05-14T03:19:19.874Z,8.00
2019-05-14T03:20:19.827Z,8.00
2019-05-14T03:21:19.963Z,8.00
2019-05-14T03:22:26.556Z,8.00
2019-05-14T03:23:22.814Z,8.00
2019-05-14T03:24:19.846Z,8.00
2019-05-14T03:25:19.598Z,12.00
2019-05-14T03:26:19.983Z,16.00
2019-05-14T03:27:19.677Z,16.00
2019-05-14T03:28:20.081Z,24.00
2019-05-14T03:29:19.855Z,24.00
2019-05-14T03:30:22.799Z,28.00
2019-05-14T03:31:22.493Z,32.00
2019-05-14T03:32:22.514Z,36.00
2019-05-14T03:33:21.978Z,40.00
2019-05-14T03:34:22.099Z,48.00
2019-05-14T03:35:24.434Z,52.00
2019-05-14T03:36:25.848Z,60.00
2019-05-14T03:37:23.445Z,72.00
2019-05-14T03:38:19.848Z,80.00
2019-05-14T03:39:19.619Z,88.00
2019-05-14T03:40:19.655Z,96.00
2019-05-14T03:41:19.806Z,108.00
2019-05-14T03:42:19.636Z,120.00
2019-05-14T03:43:20.013Z,128.00
2019-05-14T03:44:20.058Z,144.00
2019-05-14T03:45:19.671Z,156.00
2019-05-14T03:46:20.551Z,168.00
2019-05-14T03:47:19.912Z,184.00
2019-05-14T03:48:19.681Z,200.00
2019-05-14T03:49:20.075Z,212.00
2019-05-14T03:50:19.692Z,228.00
2019-05-14T03:51:20.319Z,244.00
2019-05-14T03:52:20.220Z,260.00
2019-05-14T03:53:19.707Z,276.00
2019-05-14T03:54:19.727Z,296.00
2019-05-14T03:55:20.335Z,316.00
2019-05-14T03:56:19.721Z,328.00
2019-05-14T03:57:20.161Z,348.00
2019-05-14T03:58:21.044Z,368.00
2019-05-14T03:59:20.165Z,388.00
2019-05-14T04:00:19.751Z,404.00
2019-05-14T04:01:20.316Z,420.00
2019-05-14T04:02:20.115Z,440.00
2019-05-14T04:03:20.033Z,456.00
2019-05-14T04:04:19.768Z,480.00
2019-05-14T04:05:22.632Z,496.00
2019-05-14T04:06:19.782Z,512.00
2019-05-14T04:07:19.808Z,536.00
2019-05-14T04:08:21.310Z,552.00
2019-05-14T04:09:20.378Z,568.00
2019-05-14T04:10:19.802Z,588.00
2019-05-14T04:11:20.320Z,604.00
2019-05-14T04:12:19.821Z,620.00
2019-05-14T04:13:19.993Z,636.00
2019-05-14T04:14:20.312Z,656.00
2019-05-14T04:15:19.858Z,672.00
2019-05-14T04:16:20.251Z,692.00
2019-05-14T04:17:31.618Z,704.00
2019-05-14T04:18:19.854Z,720.00
2019-05-14T04:19:19.862Z,740.00
2019-05-14T04:20:19.894Z,756.00
2019-05-14T04:21:20.547Z,772.00
2019-05-14T04:22:19.878Z,788.00
2019-05-14T04:23:19.996Z,804.00
2019-05-14T04:24:20.219Z,816.00
2019-05-14T04:25:19.912Z,836.00
2019-05-14T04:26:20.109Z,848.00
2019-05-14T04:27:20.516Z,864.00
2019-05-14T04:28:19.915Z,876.00
2019-05-14T04:29:19.919Z,892.00
2019-05-14T04:30:24.071Z,900.00
2019-05-14T04:31:19.936Z,920.00
2019-05-14T04:32:20.272Z,932.00
2019-05-14T04:33:19.947Z,944.00
2019-05-14T04:34:19.952Z,956.00
2019-05-14T04:35:20.289Z,968.00
2019-05-14T04:36:19.964Z,980.00
2019-05-14T04:37:20.351Z,988.00
2019-05-14T04:38:20.315Z,1000.00
2019-05-14T04:39:19.977Z,1012.00
2019-05-14T04:40:19.986Z,1020.00
2019-05-14T04:41:20.015Z,1032.00
2019-05-14T04:42:20.551Z,1044.00
2019-05-14T04:43:20.003Z,1052.00
2019-05-14T04:44:20.010Z,1064.00
2019-05-14T04:45:20.017Z,1072.00
2019-05-14T04:48:33.987Z,1100.00
2019-05-14T04:49:13.218Z,1112.00
2019-05-14T04:51:19.865Z,1132.00
2019-05-14T04:52:20.539Z,1140.00
2019-05-14T04:54:22.190Z,1156.00
2019-05-14T04:55:22.188Z,1164.00
2019-05-14T04:57:26.202Z,1180.00
2019-05-14T04:58:29.799Z,1188.00
2019-05-14T05:00:30.899Z,1204.00
2019-05-14T05:01:30.676Z,1208.00
2019-05-14T05:02:30.711Z,1216.00
2019-05-14T05:03:31.691Z,1224.00
2019-05-14T05:04:30.705Z,1232.00
2019-05-14T05:05:30.708Z,1240.00
2019-05-14T05:06:30.721Z,1244.00
2019-05-14T05:07:30.716Z,1256.00
2019-05-14T05:08:31.051Z,1264.00
2019-05-14T05:09:30.737Z,1268.00
2019-05-14T05:10:30.734Z,1276.00
2019-05-14T05:11:30.738Z,1280.00
2019-05-14T05:12:30.747Z,1288.00
2019-05-14T05:13:30.751Z,1292.00
2019-05-14T05:14:30.757Z,1300.00
2019-05-14T05:15:30.767Z,1304.00
2019-05-14T05:16:30.788Z,1312.00
2019-05-14T05:17:42.779Z,1320.00
2019-05-14T05:18:30.778Z,1324.00
2019-05-14T05:19:30.795Z,1332.00
2019-05-14T05:20:30.795Z,1340.00
2019-05-14T05:21:30.798Z,1344.00
2019-05-14T05:22:30.804Z,1352.00
2019-05-14T05:23:31.680Z,1356.00
2019-05-14T05:24:30.832Z,1360.00
2019-05-14T05:25:30.831Z,1368.00
2019-05-14T05:26:30.832Z,1376.00
2019-05-14T05:27:30.837Z,1380.00
2019-05-14T05:28:30.849Z,1384.00
2019-05-14T05:29:30.846Z,1388.00
2019-05-14T05:30:30.854Z,1396.00
2019-05-14T05:31:30.872Z,1400.00
2019-05-14T05:32:30.874Z,1400.00
2019-05-14T05:33:30.879Z,1412.00
2019-05-14T05:34:30.884Z,1416.00
2019-05-14T05:35:30.890Z,1416.00
2019-05-14T05:36:30.894Z,1424.00
2019-05-14T05:37:30.900Z,1424.00
2019-05-14T05:38:30.905Z,1432.00
2019-05-14T05:39:30.915Z,1432.00
2019-05-14T05:40:30.914Z,1436.00
2019-05-14T05:41:30.933Z,1444.00
2019-05-14T05:42:30.944Z,1448.00
2019-05-14T05:43:30.935Z,1452.00
2019-05-14T05:44:30.937Z,1456.00
2019-05-14T05:45:30.949Z,1272.00
2019-05-14T05:46:30.952Z,1464.00
2019-05-14T05:47:30.961Z,1468.00
2019-05-14T05:48:30.967Z,1472.00
2019-05-14T05:49:30.983Z,1476.00
2019-05-14T05:50:30.988Z,1476.00
2019-05-14T05:51:30.986Z,1480.00
2019-05-14T05:52:31.016Z,1488.00
2019-05-14T05:53:30.998Z,1488.00
2019-05-14T05:54:31.006Z,1492.00
2019-05-14T05:55:31.018Z,1492.00
2019-05-14T05:56:31.017Z,1500.00
2019-05-14T05:57:31.023Z,1508.00
2019-05-14T05:58:31.028Z,1508.00
2019-05-14T05:59:31.034Z,1512.00
2019-05-14T06:00:31.058Z,1516.00
2019-05-14T06:01:41.840Z,1520.00
2019-05-14T06:02:31.055Z,1524.00
2019-05-14T06:03:31.063Z,1528.00
2019-05-14T06:04:31.068Z,1528.00
2019-05-14T06:05:31.082Z,1532.00
2019-05-14T06:06:31.082Z,1540.00
2019-05-14T06:07:31.086Z,1544.00
2019-05-14T06:08:31.094Z,1544.00
2019-05-14T06:09:31.101Z,1552.00
2019-05-14T06:10:31.111Z,1552.00
2019-05-14T06:11:31.112Z,1556.00
2019-05-14T06:12:31.120Z,1564.00
2019-05-14T06:13:31.126Z,1564.00
2019-05-14T06:14:31.132Z,1564.00
2019-05-14T06:15:44.439Z,1572.00
2019-05-14T06:16:31.146Z,1572.00
2019-05-14T06:17:31.155Z,1576.00
2019-05-14T06:18:34.310Z,1580.00
2019-05-14T06:19:31.165Z,1584.00
2019-05-14T06:20:31.171Z,1588.00
2019-05-14T06:21:31.188Z,1592.00
2019-05-14T06:22:31.192Z,1596.00
2019-05-14T06:23:31.188Z,1596.00
2019-05-14T06:24:31.201Z,1604.00
2019-05-14T06:25:31.536Z,1604.00
2019-05-14T06:26:31.207Z,1612.00
2019-05-14T06:27:31.217Z,1612.00
2019-05-14T06:28:33.560Z,1612.00
2019-05-14T06:29:31.229Z,1616.00
2019-05-14T06:30:31.235Z,1624.00
2019-05-14T06:31:31.239Z,1620.00
2019-05-14T06:32:31.252Z,1624.00
2019-05-14T06:33:31.258Z,1628.00
2019-05-14T06:34:31.261Z,1628.00
2019-05-14T06:35:31.269Z,1628.00
2019-05-14T06:36:31.278Z,1632.00
2019-05-14T06:37:31.283Z,1636.00
2019-05-14T06:38:31.287Z,1640.00
2019-05-14T06:39:31.297Z,1648.00
2019-05-14T06:40:31.302Z,1652.00
2019-05-14T06:41:31.311Z,1652.00
2019-05-14T06:42:31.330Z,1656.00
2019-05-14T06:43:31.326Z,1652.00
2019-05-14T06:44:31.326Z,1660.00
2019-05-14T06:45:31.333Z,1664.00
2019-05-14T06:46:31.339Z,1668.00
2019-05-14T06:47:31.354Z,1668.00
2019-05-14T06:48:34.656Z,1676.00
2019-05-14T06:49:31.365Z,1680.00
2019-05-14T06:50:31.367Z,1684.00
2019-05-14T06:51:31.377Z,1688.00
2019-05-14T06:52:31.377Z,1684.00
2019-05-14T06:53:31.388Z,1692.00
2019-05-14T06:54:31.389Z,1692.00
2019-05-14T06:55:31.401Z,1696.00
2019-05-14T06:56:31.409Z,1708.00
2019-05-14T06:57:31.417Z,1708.00
2019-05-14T06:58:31.421Z,1708.00
2019-05-14T06:59:31.429Z,1716.00
2019-05-14T07:00:31.440Z,1716.00
2019-05-14T07:01:31.441Z,1720.00
2019-05-14T07:02:31.460Z,1724.00
2019-05-14T07:03:31.465Z,1728.00
2019-05-14T07:04:31.461Z,1732.00
2019-05-14T07:05:31.475Z,1736.00
2019-05-14T07:06:31.475Z,1736.00
2019-05-14T07:07:31.504Z,1744.00
2019-05-14T07:08:31.493Z,1748.00
2019-05-14T07:09:31.496Z,1752.00
2019-05-14T07:10:31.504Z,1752.00
2019-05-14T07:11:31.508Z,1756.00
2019-05-14T07:12:31.516Z,1760.00
2019-05-14T07:13:31.526Z,1764.00
2019-05-14T07:14:31.529Z,1764.00
2019-05-14T07:15:31.537Z,1776.00
2019-05-14T07:16:31.537Z,1772.00
2019-05-14T07:17:31.548Z,1780.00
2019-05-14T07:18:45.418Z,1784.00
2019-05-14T07:19:31.564Z,1788.00
2019-05-14T07:20:31.571Z,1792.00
2019-05-14T07:21:31.579Z,1800.00
2019-05-14T07:22:31.583Z,1804.00
2019-05-14T07:23:31.593Z,1804.00
2019-05-14T07:24:31.595Z,1812.00
2019-05-14T07:25:31.606Z,1820.00
2019-05-14T07:26:31.630Z,1816.00
2019-05-14T07:27:31.621Z,1824.00
2019-05-14T07:28:31.646Z,1828.00
2019-05-14T07:29:31.660Z,1836.00
2019-05-14T07:30:31.642Z,1840.00
2019-05-14T07:31:31.652Z,1844.00
2019-05-14T07:32:31.668Z,1852.00
2019-05-14T07:33:31.659Z,1852.00
2019-05-14T07:34:31.666Z,1852.00
2019-05-14T07:35:31.674Z,1868.00
2019-05-14T07:36:31.683Z,1872.00
2019-05-14T07:37:31.689Z,1876.00
2019-05-14T07:38:31.696Z,1884.00
2019-05-14T07:39:31.701Z,1888.00
2019-05-14T07:40:31.712Z,1896.00
2019-05-14T07:41:31.717Z,1904.00
2019-05-14T07:42:31.724Z,1896.00
2019-05-14T07:43:31.728Z,1900.00
2019-05-14T07:44:31.740Z,1912.00
2019-05-14T07:45:33.490Z,1920.00
2019-05-14T07:46:31.751Z,1924.00
2019-05-14T07:47:31.757Z,1932.00
2019-05-14T07:48:31.766Z,1952.00
2019-05-14T07:49:31.774Z,1964.00
2019-05-14T07:50:31.782Z,1968.00
2019-05-14T07:51:31.789Z,1976.00
2019-05-14T07:52:31.793Z,1984.00
2019-05-14T07:53:38.686Z,2004.00
2019-05-14T07:54:31.806Z,2020.00
2019-05-14T07:55:31.813Z,2036.00
2019-05-14T07:56:31.821Z,2044.00
2019-05-14T07:57:31.829Z,2068.00
2019-05-14T07:58:31.834Z,2040.00
2019-05-14T07:59:31.841Z,2048.00
2019-05-14T08:00:31.854Z,2064.00
2019-05-14T08:01:31.857Z,2052.00
2019-05-14T08:02:31.864Z,2064.00
2019-05-14T08:03:31.869Z,2076.00
2019-05-14T08:04:31.876Z,2204.00
2019-05-14T08:05:31.910Z,2992.00
2019-05-14T08:06:31.890Z,2652.00
2019-05-14T08:07:31.899Z,2356.00
2019-05-14T08:08:31.908Z,2284.00
2019-05-14T08:09:31.912Z,2892.00
2019-05-14T08:10:31.920Z,3072.00
2019-05-14T08:11:31.929Z,2416.00
2019-05-14T08:12:31.935Z,2724.00
2019-05-14T08:13:31.943Z,2552.00
2019-05-14T08:14:42.627Z,3372.00
2019-05-14T08:15:31.953Z,2972.00
2019-05-14T08:16:31.968Z,3240.00
2019-05-14T08:17:31.970Z,4712.00
2019-05-14T08:18:31.981Z,4452.00
2019-05-14T08:19:34.449Z,4108.00
2019-05-14T08:20:31.991Z,3720.00
2019-05-14T08:21:32.002Z,3312.00
2019-05-14T08:22:32.009Z,2720.00
2019-05-14T08:23:32.020Z,2704.00
2019-05-14T08:24:32.025Z,3764.00
2019-05-14T08:25:32.032Z,4692.00
2019-05-14T08:26:32.038Z,4788.00
2019-05-14T08:27:32.055Z,4588.00
2019-05-14T08:28:32.053Z,5752.00
2019-05-14T08:29:32.065Z,6820.00
2019-05-14T08:30:32.100Z,5060.00
2019-05-14T08:31:32.077Z,3988.00
2019-05-14T08:32:32.084Z,5300.00
2019-05-14T08:33:32.095Z,7560.00
2019-05-14T08:34:32.413Z,8968.00
2019-05-14T08:35:34.220Z,8564.00
2019-05-14T08:36:32.116Z,9052.00
2019-05-14T08:37:32.116Z,9736.00
2019-05-14T08:38:32.127Z,9076.00
2019-05-14T08:39:32.135Z,8676.00
2019-05-14T08:40:32.144Z,8764.00
2019-05-14T08:41:32.151Z,8644.00
2019-05-14T08:42:34.093Z,8796.00
2019-05-14T08:43:32.170Z,9448.00
2019-05-14T08:44:32.175Z,9428.00
2019-05-14T08:45:32.183Z,8448.00
2019-05-14T08:46:32.192Z,7752.00
2019-05-14T08:47:32.198Z,7848.00
2019-05-14T08:48:32.210Z,9280.00
2019-05-14T08:49:41.978Z,9576.00
2019-05-14T08:50:32.223Z,9900.00
2019-05-14T08:51:32.232Z,10292.00
2019-05-14T08:52:32.237Z,9324.00
2019-05-14T08:53:32.246Z,8480.00
2019-05-14T08:54:32.256Z,7604.00
2019-05-14T08:55:32.270Z,7152.00
2019-05-14T08:56:32.278Z,7028.00
2019-05-14T08:57:32.334Z,6820.00
2019-05-14T08:58:32.288Z,6436.00
2019-05-14T08:59:32.296Z,6248.00
2019-05-14T09:00:32.305Z,6260.00
2019-05-14T09:01:32.317Z,6028.00
2019-05-14T09:02:32.322Z,5592.00
2019-05-14T09:03:32.327Z,6168.00
2019-05-14T09:04:32.353Z,7448.00
2019-05-14T09:05:32.346Z,8068.00
2019-05-14T09:06:32.353Z,8800.00
2019-05-14T09:07:32.361Z,8632.00
2019-05-14T09:08:32.368Z,8612.00
2019-05-14T09:09:32.379Z,8616.00
2019-05-14T09:10:32.383Z,8156.00
2019-05-14T09:11:35.731Z,7656.00
2019-05-14T09:12:32.408Z,7292.00
2019-05-14T09:13:32.411Z,6944.00
2019-05-14T09:14:32.419Z,7004.00
2019-05-14T09:15:32.426Z,7440.00
2019-05-14T09:16:45.929Z,8716.00
2019-05-14T09:17:32.443Z,10320.00
2019-05-14T09:18:32.450Z,10820.00
2019-05-14T09:19:32.458Z,11100.00
2019-05-14T09:20:32.484Z,11364.00
2019-05-14T09:21:32.477Z,11320.00
2019-05-14T09:22:32.493Z,11140.00
2019-05-14T09:23:32.494Z,10512.00
2019-05-14T09:24:32.503Z,10496.00
2019-05-14T09:25:32.509Z,9836.00
2019-05-14T09:26:32.515Z,9356.00
2019-05-14T09:27:32.527Z,9128.00
2019-05-14T09:28:32.531Z,8520.00
2019-05-14T09:29:32.541Z,7740.00
2019-05-14T09:30:32.552Z,7464.00
2019-05-14T09:31:32.560Z,6528.00
2019-05-14T09:32:32.570Z,5612.00
2019-05-14T09:33:32.585Z,5556.00
2019-05-14T09:34:32.588Z,6092.00
2019-05-14T09:35:32.591Z,6676.00
2019-05-14T09:36:32.603Z,8328.00
2019-05-14T09:37:32.608Z,9272.00
2019-05-14T09:38:32.615Z,8960.00
2019-05-14T09:39:32.622Z,8608.00
2019-05-14T09:40:32.630Z,8800.00
2019-05-14T09:41:32.639Z,8592.00
2019-05-14T09:42:32.673Z,8180.00
2019-05-14T09:43:32.660Z,8468.00
2019-05-14T09:44:32.666Z,8812.00
2019-05-14T09:45:32.679Z,9428.00
2019-05-14T09:46:32.680Z,10364.00
2019-05-14T09:47:32.692Z,11520.00
2019-05-14T09:48:32.697Z,12468.00
2019-05-14T09:49:32.712Z,13452.00
2019-05-14T09:50:32.717Z,14028.00
2019-05-14T09:51:32.723Z,13424.00
2019-05-14T09:52:32.732Z,12712.00
2019-05-14T09:53:32.745Z,12004.00
2019-05-14T09:54:32.763Z,11596.00
2019-05-14T09:55:32.757Z,12056.00
2019-05-14T09:56:32.763Z,12656.00
2019-05-14T09:57:32.779Z,13640.00
2019-05-14T09:58:32.782Z,13840.00
2019-05-14T09:59:32.790Z,13200.00
2019-05-14T10:00:32.800Z,12276.00
2019-05-14T10:01:32.807Z,12168.00
2019-05-14T10:02:32.819Z,11420.00
2019-05-14T10:03:32.823Z,10948.00
2019-05-14T10:04:32.845Z,10036.00
2019-05-14T10:05:32.842Z,9780.00
2019-05-14T10:06:32.854Z,9408.00
2019-05-14T10:07:32.860Z,8356.00
2019-05-14T10:08:32.870Z,7760.00
2019-05-14T10:09:32.877Z,7912.00
2019-05-14T10:10:32.889Z,7620.00
2019-05-14T10:11:32.896Z,7364.00
2019-05-14T10:12:32.901Z,6944.00
2019-05-14T10:13:32.911Z,6744.00
2019-05-14T10:14:32.920Z,6880.00
2019-05-14T10:15:32.939Z,8108.00
2019-05-14T10:16:32.937Z,8480.00
2019-05-14T10:17:32.960Z,8880.00
2019-05-14T10:18:32.954Z,10232.00
2019-05-14T10:19:32.966Z,11772.00
2019-05-14T10:20:41.000Z,12308.00
2019-05-14T10:21:32.981Z,11832.00
2019-05-14T10:22:32.990Z,11884.00
2019-05-14T10:23:32.994Z,11744.00
2019-05-14T10:24:33.007Z,10616.00
2019-05-14T10:25:33.015Z,10292.00
2019-05-14T10:26:33.024Z,9824.00
2019-05-14T10:27:33.033Z,9056.00
2019-05-14T10:28:33.039Z,9288.00
2019-05-14T10:29:33.051Z,10176.00
2019-05-14T10:30:33.058Z,10700.00
2019-05-14T10:31:33.068Z,10360.00
2019-05-14T10:32:33.077Z,9548.00
2019-05-14T10:33:33.087Z,9544.00
2019-05-14T10:34:33.092Z,9824.00
2019-05-14T10:35:33.099Z,9572.00
2019-05-14T10:36:33.121Z,8816.00
2019-05-14T10:37:33.118Z,8376.00
2019-05-14T10:38:33.133Z,8316.00
2019-05-14T10:39:33.135Z,8536.00
2019-05-14T10:40:33.145Z,9380.00
2019-05-14T10:41:33.153Z,9764.00
2019-05-14T10:42:33.159Z,10204.00
2019-05-14T10:43:33.170Z,10748.00
2019-05-14T10:44:33.179Z,12584.00
2019-05-14T10:45:33.190Z,14272.00
2019-05-14T10:46:33.195Z,15820.00
2019-05-14T10:47:33.206Z,16544.00
2019-05-14T10:48:33.213Z,14204.00
2019-05-14T10:49:33.222Z,12572.00
2019-05-14T10:50:33.245Z,11984.00
2019-05-14T10:51:33.238Z,11660.00
2019-05-14T10:52:33.250Z,11464.00
2019-05-14T10:53:33.257Z,11520.00
2019-05-14T10:54:33.268Z,13312.00
2019-05-14T10:55:33.275Z,14328.00
2019-05-14T10:56:33.294Z,14116.00
2019-05-14T10:57:33.308Z,15488.00
2019-05-14T10:58:33.299Z,17728.00
2019-05-14T10:59:40.978Z,19616.00
2019-05-14T11:01:39.058Z,16480.00
2019-05-14T11:02:38.717Z,17856.00
2019-05-14T11:04:42.284Z,19584.00
2019-05-14T11:05:42.285Z,16928.00
2019-05-14T11:07:48.205Z,15120.00
2019-05-14T11:08:49.052Z,14980.00
2019-05-14T11:10:42.272Z,14308.00
2019-05-14T11:11:40.186Z,14896.00
2019-05-14T11:13:44.676Z,16288.00
2019-05-14T11:14:44.685Z,15808.00
2019-05-14T11:16:49.170Z,16160.00
2019-05-14T11:17:49.198Z,14928.00
2019-05-14T11:19:53.654Z,16512.00
2019-05-14T11:20:53.701Z,15656.00
2019-05-14T11:22:58.490Z,15540.00
2019-05-14T11:23:58.624Z,15932.00
2019-05-14T11:26:02.638Z,22464.00
2019-05-14T11:27:02.635Z,23424.00
2019-05-14T11:29:07.115Z,17440.00
2019-05-14T11:30:08.881Z,32256.00
2019-05-14T11:32:11.637Z,15036.00
2019-05-14T11:33:11.609Z,16416.00
2019-05-14T11:35:16.103Z,14032.00
2019-05-14T11:36:18.576Z,14520.00
2019-05-14T11:38:29.741Z,18560.00
2019-05-14T11:39:20.578Z,14384.00
2019-05-14T11:41:25.067Z,48000.00
2019-05-14T11:42:25.079Z,23552.00
2019-05-14T11:43:25.084Z,53664.00
2019-05-14T11:44:25.083Z,13872.00
2019-05-14T11:45:25.098Z,12944.00
2019-05-14T11:46:39.905Z,87264.00
2019-05-14T11:47:25.116Z,13940.00
2019-05-14T11:48:32.299Z,11152.00
2019-05-14T11:50:29.132Z,10268.00
2019-05-14T11:51:57.948Z,10244.00
2019-05-14T11:53:33.131Z,9412.00
2019-05-14T11:54:33.133Z,9140.00
2019-05-14T11:56:41.685Z,13700.00
2019-05-14T11:57:37.134Z,113760.00
2019-05-14T11:58:37.144Z,82752.00
2019-05-14T11:59:39.095Z,122560.00
2019-05-14T12:00:38.686Z,99872.00
2019-05-14T12:01:39.222Z,64864.00
2019-05-14T12:02:38.491Z,114976.00
2019-05-14T12:03:39.444Z,112608.00
2019-05-14T12:04:39.156Z,129952.00
2019-05-14T12:05:38.845Z,131680.00
2019-05-14T12:06:38.987Z,130656.00
2019-05-14T12:07:38.870Z,127808.00
2019-05-14T12:08:41.552Z,55136.00
2019-05-14T12:09:39.108Z,86880.00
2019-05-14T12:10:38.667Z,97952.00
2019-05-14T12:11:38.467Z,104608.00
2019-05-14T12:12:37.314Z,83040.00
2019-05-14T12:13:39.446Z,14752.00
2019-05-14T12:14:37.992Z,20256.00
2019-05-14T12:15:38.934Z,80960.00
2019-05-14T12:16:40.138Z,83488.00
2019-05-14T12:17:39.376Z,107680.00
2019-05-14T12:18:41.567Z,100512.00
2019-05-14T12:19:39.326Z,86848.00
2019-05-14T12:20:39.556Z,114816.00
2019-05-14T12:21:39.754Z,115328.00
2019-05-14T12:22:39.379Z,117504.00
2019-05-14T12:23:39.349Z,131264.00
2019-05-14T12:24:38.716Z,129760.00
2019-05-14T12:25:37.509Z,126720.00
2019-05-14T12:26:38.514Z,126304.00
2019-05-14T12:27:38.703Z,122496.00
2019-05-14T12:28:38.641Z,123936.00
2019-05-14T12:29:39.865Z,122880.00
2019-05-14T12:30:39.497Z,126176.00
2019-05-14T12:31:38.670Z,124768.00
2019-05-14T12:32:39.604Z,122336.00
2019-05-14T12:33:39.625Z,112544.00
2019-05-14T12:34:38.686Z,109728.00
2019-05-14T12:35:40.289Z,106464.00
2019-05-14T12:36:38.970Z,113120.00
2019-05-14T12:37:38.733Z,66880.00
2019-05-14T12:38:38.207Z,75744.00
2019-05-14T12:39:37.779Z,14020.00
2019-05-14T12:40:38.226Z,5012.00
2019-05-14T12:41:38.277Z,3028.00
2019-05-14T12:42:39.110Z,2552.00
2019-05-14T12:43:39.676Z,2468.00
2019-05-14T12:44:40.754Z,2496.00
2019-05-14T12:45:39.297Z,2884.00
2019-05-14T12:46:37.880Z,3468.00
2019-05-14T12:47:38.514Z,3756.00
2019-05-14T12:48:38.966Z,4132.00
2019-05-14T12:49:38.792Z,4680.00
2019-05-14T12:50:39.155Z,5536.00
2019-05-14T12:51:42.220Z,6508.00
2019-05-14T12:52:38.889Z,7792.00
2019-05-14T12:53:39.552Z,9656.00
2019-05-14T12:54:38.703Z,13780.00
2019-05-14T12:55:40.041Z,13676.00
2019-05-14T12:56:39.066Z,14636.00
2019-05-14T12:57:39.392Z,15132.00
2019-05-14T12:58:44.947Z,17120.00
2019-05-14T12:59:38.255Z,22304.00
2019-05-14T13:00:39.339Z,29536.00
2019-05-14T13:01:38.101Z,27872.00
2019-05-14T13:02:38.113Z,37664.00
2019-05-14T13:03:38.158Z,30176.00